Terminal Aerodrome Forecast
Issued by NWS

Home | Current Version | Previous Version | Text Only | Print | Product List | Glossary On
Versions: 1 2 3 4 5 6 7 8 9 10 11 12 13 14 15 16 17 18
297
FTUS41 KPBZ 161120
TAFHLG
TAF
KHLG 161120Z 1612/1712 10005KT P6SM BKN080
     FM162000 15005KT P6SM OVC025
     FM162200 12005KT P6SM OVC010
     FM170600 14005KT 2SM -RA BR OVC008=

USA.gov is the U.S. government's official web portal to all federal, state and local government web resources and services.